sensor_id;sensor_type;location;lat;lon;timestamp;pressure;altitude;pressure_sealevel;temperature;humidity
16613;BME280;8419;52.358;9.752;2022-07-21T00:02:04;101002.00;;;34.06;25.97
16613;BME280;8419;52.358;9.752;2022-07-21T00:04:50;100991.00;;;33.99;26.04
16613;BME280;8419;52.358;9.752;2022-07-21T00:07:35;100975.00;;;33.97;26.17
16613;BME280;8419;52.358;9.752;2022-07-21T00:10:23;100971.00;;;33.94;26.23
16613;BME280;8419;52.358;9.752;2022-07-21T00:13:08;100962.00;;;33.92;26.30
16613;BME280;8419;52.358;9.752;2022-07-21T00:15:54;100946.00;;;33.94;26.21
16613;BME280;8419;52.358;9.752;2022-07-21T00:18:39;100948.00;;;33.98;26.31
16613;BME280;8419;52.358;9.752;2022-07-21T00:21:25;100945.00;;;33.98;26.47
16613;BME280;8419;52.358;9.752;2022-07-21T00:24:10;100952.00;;;33.91;26.66
16613;BME280;8419;52.358;9.752;2022-07-21T00:26:55;100933.00;;;33.94;26.80
16613;BME280;8419;52.358;9.752;2022-07-21T00:29:40;100937.00;;;33.94;26.86
16613;BME280;8419;52.358;9.752;2022-07-21T00:32:26;100946.00;;;33.79;27.19
16613;BME280;8419;52.358;9.752;2022-07-21T00:35:12;100938.00;;;33.81;27.31
16613;BME280;8419;52.358;9.752;2022-07-21T00:37:57;100938.00;;;33.76;27.43
16613;BME280;8419;52.358;9.752;2022-07-21T00:40:43;100926.00;;;33.12;28.36
16613;BME280;8419;52.358;9.752;2022-07-21T00:43:28;100929.00;;;33.32;28.23
16613;BME280;8419;52.358;9.752;2022-07-21T00:46:14;100941.00;;;33.05;28.59
16613;BME280;8419;52.358;9.752;2022-07-21T00:48:59;100951.00;;;33.82;27.63
16613;BME280;8419;52.358;9.752;2022-07-21T00:51:44;100960.00;;;33.84;27.73
16613;BME280;8419;52.358;9.752;2022-07-21T00:54:30;100969.00;;;33.58;28.07
16613;BME280;8419;52.358;9.752;2022-07-21T00:57:16;100985.00;;;33.83;27.75
16613;BME280;8419;52.358;9.752;2022-07-21T01:00:01;100987.00;;;33.89;27.66
16613;BME280;8419;52.358;9.752;2022-07-21T01:02:48;100991.00;;;33.25;28.54
16613;BME280;8419;52.358;9.752;2022-07-21T01:05:34;100987.00;;;33.27;28.90
16613;BME280;8419;52.358;9.752;2022-07-21T01:08:20;100989.00;;;33.72;28.28
16613;BME280;8419;52.358;9.752;2022-07-21T01:11:05;100980.00;;;33.63;28.87
16613;BME280;8419;52.358;9.752;2022-07-21T01:13:51;100973.00;;;33.52;29.26
16613;BME280;8419;52.358;9.752;2022-07-21T01:16:37;100976.00;;;33.47;29.53
16613;BME280;8419;52.358;9.752;2022-07-21T01:19:22;100975.00;;;33.52;29.87
16613;BME280;8419;52.358;9.752;2022-07-21T01:22:08;100966.00;;;33.48;30.27
16613;BME280;8419;52.358;9.752;2022-07-21T01:24:54;100965.00;;;33.49;30.48
16613;BME280;8419;52.358;9.752;2022-07-21T01:27:39;100965.00;;;33.41;30.66
16613;BME280;8419;52.358;9.752;2022-07-21T01:30:24;100968.00;;;33.43;30.87
16613;BME280;8419;52.358;9.752;2022-07-21T01:33:09;100972.00;;;33.42;31.21
16613;BME280;8419;52.358;9.752;2022-07-21T01:35:54;100965.00;;;33.38;31.37
16613;BME280;8419;52.358;9.752;2022-07-21T01:38:40;100951.00;;;33.36;31.57
16613;BME280;8419;52.358;9.752;2022-07-21T01:41:44;100947.00;;;33.35;31.55
16613;BME280;8419;52.358;9.752;2022-07-21T01:44:29;100920.00;;;33.34;31.80
16613;BME280;8419;52.358;9.752;2022-07-21T01:47:15;100911.00;;;33.32;32.12
16613;BME280;8419;52.358;9.752;2022-07-21T01:50:03;100913.00;;;33.30;32.14
16613;BME280;8419;52.358;9.752;2022-07-21T01:52:48;100928.00;;;33.28;32.26
16613;BME280;8419;52.358;9.752;2022-07-21T01:55:34;100947.00;;;33.27;32.32
16613;BME280;8419;52.358;9.752;2022-07-21T01:58:20;100928.00;;;33.25;32.37
16613;BME280;8419;52.358;9.752;2022-07-21T02:01:06;100895.00;;;33.30;32.36
16613;BME280;8419;52.358;9.752;2022-07-21T02:03:51;100871.00;;;33.25;32.47
16613;BME280;8419;52.358;9.752;2022-07-21T02:06:37;100869.00;;;33.23;32.64
16613;BME280;8419;52.358;9.752;2022-07-21T02:09:22;100906.00;;;33.35;32.45
16613;BME280;8419;52.358;9.752;2022-07-21T02:12:09;100929.00;;;33.33;32.47
16613;BME280;8419;52.358;9.752;2022-07-21T02:14:54;100880.00;;;33.14;33.02
16613;BME280;8419;52.358;9.752;2022-07-21T02:17:39;100887.00;;;33.02;33.42
16613;BME280;8419;52.358;9.752;2022-07-21T02:20:25;100921.00;;;32.75;34.34
16613;BME280;8419;52.358;9.752;2022-07-21T02:23:11;100932.00;;;32.48;35.00
16613;BME280;8419;52.358;9.752;2022-07-21T02:25:57;100944.00;;;32.39;35.33
16613;BME280;8419;52.358;9.752;2022-07-21T02:28:42;100939.00;;;32.49;34.99
16613;BME280;8419;52.358;9.752;2022-07-21T02:31:28;100911.00;;;32.59;35.05
16613;BME280;8419;52.358;9.752;2022-07-21T02:34:13;100909.00;;;32.58;35.20
16613;BME280;8419;52.358;9.752;2022-07-21T02:36:58;100924.00;;;32.57;35.35
16613;BME280;8419;52.358;9.752;2022-07-21T02:39:43;100936.00;;;32.33;36.00
16613;BME280;8419;52.358;9.752;2022-07-21T02:42:29;100922.00;;;31.95;37.04
16613;BME280;8419;52.358;9.752;2022-07-21T02:45:15;100940.00;;;31.67;37.67
16613;BME280;8419;52.358;9.752;2022-07-21T02:48:04;100930.00;;;31.53;38.17
16613;BME280;8419;52.358;9.752;2022-07-21T02:50:49;100927.00;;;31.58;38.20
16613;BME280;8419;52.358;9.752;2022-07-21T02:53:35;100944.00;;;31.66;38.05
16613;BME280;8419;52.358;9.752;2022-07-21T02:56:20;100964.00;;;31.74;37.82
16613;BME280;8419;52.358;9.752;2022-07-21T02:59:05;100967.00;;;31.81;37.67
16613;BME280;8419;52.358;9.752;2022-07-21T03:01:51;100961.00;;;31.85;37.63
16613;BME280;8419;52.358;9.752;2022-07-21T03:04:36;100952.00;;;31.91;37.57
16613;BME280;8419;52.358;9.752;2022-07-21T03:07:21;100945.00;;;31.95;37.56
16613;BME280;8419;52.358;9.752;2022-07-21T03:10:08;100935.00;;;31.94;37.76
16613;BME280;8419;52.358;9.752;2022-07-21T03:12:54;100935.00;;;32.14;37.47
16613;BME280;8419;52.358;9.752;2022-07-21T03:15:40;100920.00;;;32.15;37.50
16613;BME280;8419;52.358;9.752;2022-07-21T03:18:25;100909.00;;;32.06;37.75
16613;BME280;8419;52.358;9.752;2022-07-21T03:21:10;100923.00;;;32.00;37.95
16613;BME280;8419;52.358;9.752;2022-07-21T03:23:55;100900.00;;;31.69;38.43
16613;BME280;8419;52.358;9.752;2022-07-21T03:26:40;100888.00;;;31.67;38.63
16613;BME280;8419;52.358;9.752;2022-07-21T03:29:25;100880.00;;;31.67;38.80
16613;BME280;8419;52.358;9.752;2022-07-21T03:32:10;100881.00;;;31.50;39.00
16613;BME280;8419;52.358;9.752;2022-07-21T03:34:56;100889.00;;;32.02;38.00
16613;BME280;8419;52.358;9.752;2022-07-21T03:37:42;100885.00;;;31.47;39.16
16613;BME280;8419;52.358;9.752;2022-07-21T03:40:30;100870.00;;;32.14;37.90
16613;BME280;8419;52.358;9.752;2022-07-21T03:43:16;100856.00;;;31.53;38.98
16613;BME280;8419;52.358;9.752;2022-07-21T03:46:01;100841.00;;;31.62;38.78
16613;BME280;8419;52.358;9.752;2022-07-21T03:48:46;100837.00;;;32.04;37.88
16613;BME280;8419;52.358;9.752;2022-07-21T03:51:32;100873.00;;;31.86;38.17
16613;BME280;8419;52.358;9.752;2022-07-21T03:54:17;100901.00;;;31.94;37.94
16613;BME280;8419;52.358;9.752;2022-07-21T03:57:03;100904.00;;;31.90;37.89
16613;BME280;8419;52.358;9.752;2022-07-21T03:59:48;100909.00;;;32.28;37.24
16613;BME280;8419;52.358;9.752;2022-07-21T04:02:33;100915.00;;;32.22;37.20
16613;BME280;8419;52.358;9.752;2022-07-21T04:05:19;100899.00;;;32.35;37.02
16613;BME280;8419;52.358;9.752;2022-07-21T04:08:06;100888.00;;;32.20;37.15
16613;BME280;8419;52.358;9.752;2022-07-21T04:10:52;100923.00;;;32.23;37.04
16613;BME280;8419;52.358;9.752;2022-07-21T04:13:37;100936.00;;;31.78;37.99
16613;BME280;8419;52.358;9.752;2022-07-21T04:16:23;100933.00;;;32.16;37.30
16613;BME280;8419;52.358;9.752;2022-07-21T04:19:08;100936.00;;;31.55;38.52
16613;BME280;8419;52.358;9.752;2022-07-21T04:21:53;100938.00;;;31.56;38.52
16613;BME280;8419;52.358;9.752;2022-07-21T04:24:38;100938.00;;;32.04;37.56
16613;BME280;8419;52.358;9.752;2022-07-21T04:27:24;100952.00;;;32.04;37.63
16613;BME280;8419;52.358;9.752;2022-07-21T04:30:13;100969.00;;;32.09;37.64
16613;BME280;8419;52.358;9.752;2022-07-21T04:32:58;100968.00;;;32.04;37.69
16613;BME280;8419;52.358;9.752;2022-07-21T04:35:43;100981.00;;;32.02;37.77
16613;BME280;8419;52.358;9.752;2022-07-21T04:38:29;100990.00;;;31.98;37.88
16613;BME280;8419;52.358;9.752;2022-07-21T04:41:14;101009.00;;;31.93;38.02
16613;BME280;8419;52.358;9.752;2022-07-21T04:43:59;101012.00;;;31.95;38.03
16613;BME280;8419;52.358;9.752;2022-07-21T04:46:45;101018.00;;;32.00;37.94
16613;BME280;8419;52.358;9.752;2022-07-21T04:49:30;101014.00;;;31.97;37.98
16613;BME280;8419;52.358;9.752;2022-07-21T04:52:16;101014.00;;;31.99;37.98
16613;BME280;8419;52.358;9.752;2022-07-21T04:55:02;101022.00;;;31.97;38.02
16613;BME280;8419;52.358;9.752;2022-07-21T04:57:48;101025.00;;;31.99;38.01
16613;BME280;8419;52.358;9.752;2022-07-21T05:00:34;101019.00;;;31.99;38.06
16613;BME280;8419;52.358;9.752;2022-07-21T05:03:19;101019.00;;;32.00;38.07
16613;BME280;8419;52.358;9.752;2022-07-21T05:06:05;101016.00;;;31.94;38.34
16613;BME280;8419;52.358;9.752;2022-07-21T05:08:50;101017.00;;;31.97;38.29
16613;BME280;8419;52.358;9.752;2022-07-21T05:11:36;101018.00;;;31.96;38.34
16613;BME280;8419;52.358;9.752;2022-07-21T05:14:22;101015.00;;;32.01;38.19
16613;BME280;8419;52.358;9.752;2022-07-21T05:17:07;101011.00;;;32.02;38.16
16613;BME280;8419;52.358;9.752;2022-07-21T05:19:54;101018.00;;;32.08;38.00
16613;BME280;8419;52.358;9.752;2022-07-21T05:22:40;101017.00;;;32.07;37.94
16613;BME280;8419;52.358;9.752;2022-07-21T05:25:25;101010.00;;;32.26;37.52
16613;BME280;8419;52.358;9.752;2022-07-21T05:28:10;101001.00;;;32.31;37.28
16613;BME280;8419;52.358;9.752;2022-07-21T05:30:56;101003.00;;;32.28;37.24
16613;BME280;8419;52.358;9.752;2022-07-21T05:33:41;100994.00;;;32.33;37.09
16613;BME280;8419;52.358;9.752;2022-07-21T05:36:26;101007.00;;;32.41;36.96
16613;BME280;8419;52.358;9.752;2022-07-21T05:39:12;101009.00;;;32.44;36.89
16613;BME280;8419;52.358;9.752;2022-07-21T05:41:57;101018.00;;;32.42;36.84
16613;BME280;8419;52.358;9.752;2022-07-21T05:44:42;101020.00;;;32.45;36.77
16613;BME280;8419;52.358;9.752;2022-07-21T05:47:29;101017.00;;;32.43;36.70
16613;BME280;8419;52.358;9.752;2022-07-21T05:50:14;101014.00;;;32.32;36.68
16613;BME280;8419;52.358;9.752;2022-07-21T05:52:59;101017.00;;;32.24;36.58
16613;BME280;8419;52.358;9.752;2022-07-21T05:55:45;101031.00;;;32.13;36.64
16613;BME280;8419;52.358;9.752;2022-07-21T05:58:34;101029.00;;;32.05;36.65
16613;BME280;8419;52.358;9.752;2022-07-21T06:01:19;101050.00;;;32.16;36.47
16613;BME280;8419;52.358;9.752;2022-07-21T06:04:05;101056.00;;;31.98;36.74
16613;BME280;8419;52.358;9.752;2022-07-21T06:06:50;101057.00;;;31.98;36.72
16613;BME280;8419;52.358;9.752;2022-07-21T06:09:37;101055.00;;;32.07;36.55
16613;BME280;8419;52.358;9.752;2022-07-21T06:12:22;101056.00;;;32.21;36.38
16613;BME280;8419;52.358;9.752;2022-07-21T06:15:10;101055.00;;;32.46;36.01
16613;BME280;8419;52.358;9.752;2022-07-21T06:17:56;101056.00;;;32.59;35.85
16613;BME280;8419;52.358;9.752;2022-07-21T06:20:41;101058.00;;;32.68;35.70
16613;BME280;8419;52.358;9.752;2022-07-21T06:23:28;101065.00;;;32.76;35.66
16613;BME280;8419;52.358;9.752;2022-07-21T06:26:13;101057.00;;;32.71;35.70
16613;BME280;8419;52.358;9.752;2022-07-21T06:28:58;101067.00;;;32.80;35.64
16613;BME280;8419;52.358;9.752;2022-07-21T06:31:43;101067.00;;;32.83;35.61
16613;BME280;8419;52.358;9.752;2022-07-21T06:34:29;101074.00;;;32.88;35.59
16613;BME280;8419;52.358;9.752;2022-07-21T06:37:14;101082.00;;;32.79;35.84
16613;BME280;8419;52.358;9.752;2022-07-21T06:40:00;101085.00;;;32.72;36.04
16613;BME280;8419;52.358;9.752;2022-07-21T06:42:45;101083.00;;;32.70;36.08
16613;BME280;8419;52.358;9.752;2022-07-21T06:45:31;101091.00;;;32.72;36.17
16613;BME280;8419;52.358;9.752;2022-07-21T06:48:16;101085.00;;;32.75;36.17
16613;BME280;8419;52.358;9.752;2022-07-21T06:51:02;101087.00;;;32.58;36.59
16613;BME280;8419;52.358;9.752;2022-07-21T06:53:48;101079.00;;;32.56;36.57
16613;BME280;8419;52.358;9.752;2022-07-21T06:56:33;101078.00;;;32.54;36.50
16613;BME280;8419;52.358;9.752;2022-07-21T06:59:19;101077.00;;;32.70;36.22
16613;BME280;8419;52.358;9.752;2022-07-21T07:02:05;101090.00;;;32.58;36.46
16613;BME280;8419;52.358;9.752;2022-07-21T07:04:51;101090.00;;;32.61;36.34
16613;BME280;8419;52.358;9.752;2022-07-21T07:07:36;101085.00;;;32.63;36.28
16613;BME280;8419;52.358;9.752;2022-07-21T07:10:21;101082.00;;;32.73;36.09
16613;BME280;8419;52.358;9.752;2022-07-21T07:13:08;101086.00;;;32.82;35.99
16613;BME280;8419;52.358;9.752;2022-07-21T07:15:54;101081.00;;;32.85;35.92
16613;BME280;8419;52.358;9.752;2022-07-21T07:18:40;101087.00;;;32.93;35.81
16613;BME280;8419;52.358;9.752;2022-07-21T07:21:26;101081.00;;;32.94;35.76
16613;BME280;8419;52.358;9.752;2022-07-21T07:24:12;101084.00;;;33.04;35.58
16613;BME280;8419;52.358;9.752;2022-07-21T07:26:57;101086.00;;;33.08;35.51
16613;BME280;8419;52.358;9.752;2022-07-21T07:29:43;101087.00;;;33.08;35.47
16613;BME280;8419;52.358;9.752;2022-07-21T07:32:30;101089.00;;;33.10;35.38
16613;BME280;8419;52.358;9.752;2022-07-21T07:35:17;101087.00;;;33.15;35.31
16613;BME280;8419;52.358;9.752;2022-07-21T07:38:02;101091.00;;;33.01;35.39
16613;BME280;8419;52.358;9.752;2022-07-21T07:40:48;101109.00;;;32.76;35.60
16613;BME280;8419;52.358;9.752;2022-07-21T07:43:33;101106.00;;;32.28;36.17
16613;BME280;8419;52.358;9.752;2022-07-21T07:46:19;101113.00;;;32.29;36.20
16613;BME280;8419;52.358;9.752;2022-07-21T07:49:04;101110.00;;;32.37;35.98
16613;BME280;8419;52.358;9.752;2022-07-21T07:51:49;101108.00;;;32.18;36.26
16613;BME280;8419;52.358;9.752;2022-07-21T07:54:35;101110.00;;;31.65;37.28
16613;BME280;8419;52.358;9.752;2022-07-21T07:57:21;101121.00;;;31.09;37.99
16613;BME280;8419;52.358;9.752;2022-07-21T08:00:10;101122.00;;;30.65;38.75
16613;BME280;8419;52.358;9.752;2022-07-21T08:02:56;101113.00;;;30.51;39.19
16613;BME280;8419;52.358;9.752;2022-07-21T08:05:41;101121.00;;;30.45;39.45
16613;BME280;8419;52.358;9.752;2022-07-21T08:08:27;101132.00;;;30.43;39.53
16613;BME280;8419;52.358;9.752;2022-07-21T08:11:12;101132.00;;;30.43;39.66
16613;BME280;8419;52.358;9.752;2022-07-21T08:13:58;101141.00;;;30.52;39.58
16613;BME280;8419;52.358;9.752;2022-07-21T08:16:43;101138.00;;;30.57;39.59
16613;BME280;8419;52.358;9.752;2022-07-21T08:19:30;101135.00;;;30.62;39.50
16613;BME280;8419;52.358;9.752;2022-07-21T08:22:15;101132.00;;;30.79;39.35
16613;BME280;8419;52.358;9.752;2022-07-21T08:25:01;101143.00;;;30.99;39.21
16613;BME280;8419;52.358;9.752;2022-07-21T08:27:46;101145.00;;;31.10;39.07
16613;BME280;8419;52.358;9.752;2022-07-21T08:30:34;101141.00;;;31.33;38.81
16613;BME280;8419;52.358;9.752;2022-07-21T08:33:20;101153.00;;;31.67;38.24
16613;BME280;8419;52.358;9.752;2022-07-21T08:36:07;101144.00;;;32.03;37.79
16613;BME280;8419;52.358;9.752;2022-07-21T08:38:53;101147.00;;;32.33;37.29
16613;BME280;8419;52.358;9.752;2022-07-21T08:41:40;101144.00;;;32.29;37.17
16613;BME280;8419;52.358;9.752;2022-07-21T08:44:26;101145.00;;;32.42;36.99
16613;BME280;8419;52.358;9.752;2022-07-21T08:47:11;101137.00;;;33.01;36.22
16613;BME280;8419;52.358;9.752;2022-07-21T08:49:57;101143.00;;;33.41;35.61
16613;BME280;8419;52.358;9.752;2022-07-21T08:52:42;101140.00;;;33.74;35.15
16613;BME280;8419;52.358;9.752;2022-07-21T08:55:29;101152.00;;;33.61;34.95
16613;BME280;8419;52.358;9.752;2022-07-21T08:58:16;101153.00;;;33.55;34.87
16613;BME280;8419;52.358;9.752;2022-07-21T09:01:01;101141.00;;;33.61;34.62
16613;BME280;8419;52.358;9.752;2022-07-21T09:03:46;101151.00;;;33.68;34.41
16613;BME280;8419;52.358;9.752;2022-07-21T09:06:32;101141.00;;;33.67;34.23
16613;BME280;8419;52.358;9.752;2022-07-21T09:09:34;101138.00;;;33.54;34.09
16613;BME280;8419;52.358;9.752;2022-07-21T09:12:20;101138.00;;;33.40;34.17
16613;BME280;8419;52.358;9.752;2022-07-21T09:15:13;101142.00;;;33.32;34.09
16613;BME280;8419;52.358;9.752;2022-07-21T09:18:08;101141.00;;;33.21;34.26
16613;BME280;8419;52.358;9.752;2022-07-21T09:20:54;101142.00;;;33.14;34.24
16613;BME280;8419;52.358;9.752;2022-07-21T09:23:39;101145.00;;;33.07;34.25
16613;BME280;8419;52.358;9.752;2022-07-21T09:26:25;101142.00;;;32.89;34.45
16613;BME280;8419;52.358;9.752;2022-07-21T09:29:10;101158.00;;;32.79;34.62
16613;BME280;8419;52.358;9.752;2022-07-21T09:31:58;101143.00;;;32.78;34.61
16613;BME280;8419;52.358;9.752;2022-07-21T09:34:44;101145.00;;;32.84;34.49
16613;BME280;8419;52.358;9.752;2022-07-21T09:37:30;101144.00;;;32.77;34.52
16613;BME280;8419;52.358;9.752;2022-07-21T09:40:16;101158.00;;;32.67;34.67
16613;BME280;8419;52.358;9.752;2022-07-21T09:43:02;101157.00;;;32.80;34.52
16613;BME280;8419;52.358;9.752;2022-07-21T09:45:48;101156.00;;;32.84;34.20
16613;BME280;8419;52.358;9.752;2022-07-21T09:48:35;101156.00;;;33.04;33.94
16613;BME280;8419;52.358;9.752;2022-07-21T09:51:25;101155.00;;;33.17;33.73
16613;BME280;8419;52.358;9.752;2022-07-21T09:54:12;101156.00;;;33.27;33.50
16613;BME280;8419;52.358;9.752;2022-07-21T09:56:58;101160.00;;;33.21;33.62
16613;BME280;8419;52.358;9.752;2022-07-21T09:59:45;101158.00;;;33.35;33.44
16613;BME280;8419;52.358;9.752;2022-07-21T10:02:32;101153.00;;;33.58;33.09
16613;BME280;8419;52.358;9.752;2022-07-21T10:05:19;101152.00;;;33.83;32.79
16613;BME280;8419;52.358;9.752;2022-07-21T10:08:05;101159.00;;;33.85;32.75
16613;BME280;8419;52.358;9.752;2022-07-21T10:10:51;101157.00;;;33.97;32.67
16613;BME280;8419;52.358;9.752;2022-07-21T10:13:38;101154.00;;;34.41;32.19
16613;BME280;8419;52.358;9.752;2022-07-21T10:16:24;101160.00;;;34.65;31.83
16613;BME280;8419;52.358;9.752;2022-07-21T10:19:21;101152.00;;;35.08;31.39
16613;BME280;8419;52.358;9.752;2022-07-21T10:22:17;101153.00;;;35.24;31.09
16613;BME280;8419;52.358;9.752;2022-07-21T10:25:07;101146.00;;;35.63;30.63
16613;BME280;8419;52.358;9.752;2022-07-21T10:28:17;101146.00;;;35.78;30.41
16613;BME280;8419;52.358;9.752;2022-07-21T10:31:14;101142.00;;;36.07;30.00
16613;BME280;8419;52.358;9.752;2022-07-21T10:34:01;101136.00;;;36.10;29.66
16613;BME280;8419;52.358;9.752;2022-07-21T10:36:48;101140.00;;;36.02;29.85
16613;BME280;8419;52.358;9.752;2022-07-21T10:39:34;101143.00;;;35.84;29.43
16613;BME280;8419;52.358;9.752;2022-07-21T10:42:19;101128.00;;;35.85;29.41
16613;BME280;8419;52.358;9.752;2022-07-21T10:45:29;101134.00;;;36.12;29.11
16613;BME280;8419;52.358;9.752;2022-07-21T10:48:47;101131.00;;;36.43;28.58
16613;BME280;8419;52.358;9.752;2022-07-21T10:51:34;101121.00;;;36.37;28.54
16613;BME280;8419;52.358;9.752;2022-07-21T10:54:22;101127.00;;;36.29;28.18
16613;BME280;8419;52.358;9.752;2022-07-21T10:57:28;101119.00;;;36.30;28.20
16613;BME280;8419;52.358;9.752;2022-07-21T11:00:25;101113.00;;;36.41;28.11
16613;BME280;8419;52.358;9.752;2022-07-21T11:03:18;101111.00;;;36.55;27.95
16613;BME280;8419;52.358;9.752;2022-07-21T11:06:15;101123.00;;;36.73;27.74
16613;BME280;8419;52.358;9.752;2022-07-21T11:09:12;101114.00;;;36.73;27.45
16613;BME280;8419;52.358;9.752;2022-07-21T11:12:00;101106.00;;;36.48;27.66
16613;BME280;8419;52.358;9.752;2022-07-21T11:14:47;101100.00;;;36.61;27.51
16613;BME280;8419;52.358;9.752;2022-07-21T11:17:36;101094.00;;;36.41;27.52
16613;BME280;8419;52.358;9.752;2022-07-21T11:20:24;101091.00;;;36.19;27.76
16613;BME280;8419;52.358;9.752;2022-07-21T11:23:10;101093.00;;;36.15;27.81
16613;BME280;8419;52.358;9.752;2022-07-21T11:25:56;101090.00;;;36.27;27.75
16613;BME280;8419;52.358;9.752;2022-07-21T11:28:42;101086.00;;;36.58;27.55
16613;BME280;8419;52.358;9.752;2022-07-21T11:31:28;101088.00;;;36.80;27.22
16613;BME280;8419;52.358;9.752;2022-07-21T11:34:13;101089.00;;;36.93;26.87
16613;BME280;8419;52.358;9.752;2022-07-21T11:37:00;101095.00;;;36.95;26.68
16613;BME280;8419;52.358;9.752;2022-07-21T11:39:46;101082.00;;;36.85;26.50
16613;BME280;8419;52.358;9.752;2022-07-21T11:42:31;101080.00;;;36.77;26.68
16613;BME280;8419;52.358;9.752;2022-07-21T11:45:17;101067.00;;;36.94;26.47
16613;BME280;8419;52.358;9.752;2022-07-21T11:48:02;101069.00;;;37.09;26.22
16613;BME280;8419;52.358;9.752;2022-07-21T11:50:59;101067.00;;;37.61;25.76
16613;BME280;8419;52.358;9.752;2022-07-21T11:53:45;101061.00;;;38.39;25.12
16613;BME280;8419;52.358;9.752;2022-07-21T11:56:37;101050.00;;;38.50;24.75
16613;BME280;8419;52.358;9.752;2022-07-21T11:59:23;101057.00;;;38.80;24.53
16613;BME280;8419;52.358;9.752;2022-07-21T12:02:10;101047.00;;;39.03;24.18
16613;BME280;8419;52.358;9.752;2022-07-21T12:04:58;101056.00;;;38.72;24.42
16613;BME280;8419;52.358;9.752;2022-07-21T12:07:46;101051.00;;;38.92;23.75
16613;BME280;8419;52.358;9.752;2022-07-21T12:10:33;101054.00;;;38.43;24.36
16613;BME280;8419;52.358;9.752;2022-07-21T12:13:19;101058.00;;;38.34;24.43
16613;BME280;8419;52.358;9.752;2022-07-21T12:16:04;101066.00;;;38.61;23.82
16613;BME280;8419;52.358;9.752;2022-07-21T12:18:50;101066.00;;;38.26;24.21
16613;BME280;8419;52.358;9.752;2022-07-21T12:21:52;101067.00;;;38.08;24.37
16613;BME280;8419;52.358;9.752;2022-07-21T12:24:50;101072.00;;;37.71;24.48
16613;BME280;8419;52.358;9.752;2022-07-21T12:27:37;101065.00;;;37.63;24.52
16613;BME280;8419;52.358;9.752;2022-07-21T12:30:35;101075.00;;;37.62;24.49
16613;BME280;8419;52.358;9.752;2022-07-21T12:33:27;101061.00;;;36.96;25.06
16613;BME280;8419;52.358;9.752;2022-07-21T12:36:13;101073.00;;;36.71;25.53
16613;BME280;8419;52.358;9.752;2022-07-21T12:39:13;101075.00;;;36.39;26.44
16613;BME280;8419;52.358;9.752;2022-07-21T12:41:59;101078.00;;;35.78;28.04
16613;BME280;8419;52.358;9.752;2022-07-21T12:44:44;101088.00;;;35.14;29.64
16613;BME280;8419;52.358;9.752;2022-07-21T12:47:30;101083.00;;;34.97;30.20
16613;BME280;8419;52.358;9.752;2022-07-21T12:50:16;101078.00;;;35.12;30.40
16613;BME280;8419;52.358;9.752;2022-07-21T12:53:01;101089.00;;;35.32;30.49
16613;BME280;8419;52.358;9.752;2022-07-21T12:55:47;101097.00;;;35.23;30.78
16613;BME280;8419;52.358;9.752;2022-07-21T12:58:33;101099.00;;;35.31;30.74
16613;BME280;8419;52.358;9.752;2022-07-21T13:01:20;101104.00;;;35.40;30.59
16613;BME280;8419;52.358;9.752;2022-07-21T13:04:06;101113.00;;;35.43;30.49
16613;BME280;8419;52.358;9.752;2022-07-21T13:06:52;101109.00;;;35.74;30.05
16613;BME280;8419;52.358;9.752;2022-07-21T13:09:37;101108.00;;;35.67;30.20
16613;BME280;8419;52.358;9.752;2022-07-21T13:12:23;101122.00;;;36.39;29.47
16613;BME280;8419;52.358;9.752;2022-07-21T13:15:09;101136.00;;;37.73;27.78
16613;BME280;8419;52.358;9.752;2022-07-21T13:17:54;101131.00;;;37.16;28.15
16613;BME280;8419;52.358;9.752;2022-07-21T13:20:40;101133.00;;;36.34;29.18
16613;BME280;8419;52.358;9.752;2022-07-21T13:23:25;101143.00;;;35.19;30.61
16613;BME280;8419;52.358;9.752;2022-07-21T13:26:11;101145.00;;;34.97;30.34
16613;BME280;8419;52.358;9.752;2022-07-21T13:28:56;101136.00;;;34.56;30.10
16613;BME280;8419;52.358;9.752;2022-07-21T13:31:42;101119.00;;;34.16;30.00
16613;BME280;8419;52.358;9.752;2022-07-21T13:34:28;101119.00;;;33.87;29.80
16613;BME280;8419;52.358;9.752;2022-07-21T13:37:13;101118.00;;;33.62;29.79
16613;BME280;8419;52.358;9.752;2022-07-21T13:39:59;101108.00;;;33.67;29.75
16613;BME280;8419;52.358;9.752;2022-07-21T13:42:44;101107.00;;;33.90;29.67
16613;BME280;8419;52.358;9.752;2022-07-21T13:45:30;101099.00;;;36.37;27.00
16613;BME280;8419;52.358;9.752;2022-07-21T13:48:15;101093.00;;;37.82;25.45
16613;BME280;8419;52.358;9.752;2022-07-21T13:51:02;101100.00;;;38.31;24.82
16613;BME280;8419;52.358;9.752;2022-07-21T13:53:49;101105.00;;;38.83;24.49
16613;BME280;8419;52.358;9.752;2022-07-21T13:56:35;101113.00;;;38.42;24.81
16613;BME280;8419;52.358;9.752;2022-07-21T13:59:20;101107.00;;;38.20;25.18
16613;BME280;8419;52.358;9.752;2022-07-21T14:02:05;101112.00;;;37.13;26.20
16613;BME280;8419;52.358;9.752;2022-07-21T14:04:50;101122.00;;;36.58;26.78
16613;BME280;8419;52.358;9.752;2022-07-21T14:07:36;101099.00;;;36.28;27.11
16613;BME280;8419;52.358;9.752;2022-07-21T14:10:22;101110.00;;;35.89;27.50
16613;BME280;8419;52.358;9.752;2022-07-21T14:13:07;101102.00;;;35.62;27.80
16613;BME280;8419;52.358;9.752;2022-07-21T14:15:52;101111.00;;;35.65;27.72
16613;BME280;8419;52.358;9.752;2022-07-21T14:18:38;101103.00;;;35.32;28.20
16613;BME280;8419;52.358;9.752;2022-07-21T14:21:24;101100.00;;;35.63;27.78
16613;BME280;8419;52.358;9.752;2022-07-21T14:24:09;101106.00;;;35.53;28.04
16613;BME280;8419;52.358;9.752;2022-07-21T14:27:13;101105.00;;;35.38;28.35
16613;BME280;8419;52.358;9.752;2022-07-21T14:29:58;101108.00;;;35.30;28.41
16613;BME280;8419;52.358;9.752;2022-07-21T14:32:46;101114.00;;;35.12;28.64
16613;BME280;8419;52.358;9.752;2022-07-21T14:35:32;101118.00;;;34.20;29.80
16613;BME280;8419;52.358;9.752;2022-07-21T14:38:17;101106.00;;;33.86;30.02
16613;BME280;8419;52.358;9.752;2022-07-21T14:41:05;101103.00;;;33.78;30.09
16613;BME280;8419;52.358;9.752;2022-07-21T14:43:50;101092.00;;;34.04;29.65